Time;durP1;ratioP1;P1;durP2;ratioP2;P2;SDS_P1;SDS_P2;PMS_P1;PMS_P2;Temp;Humidity;BMP_temperature;BMP_pressure;BME280_temperature;BME280_humidity;BME280_pressure;Samples;Min_cycle;Max_cycle;Signal;HPM_P1;HPM_P2
2023/06/28 00:02:25;;;;;;;10.18;4.75;;;;;;;;;;10229373;23;20021;-90
2023/06/28 00:06:31;;;;;;;8.13;4.80;;;;;;;;;;10230789;23;20041;-91
2023/06/28 00:10:34;;;;;;;12.15;4.97;;;;;;;;;;10248377;23;20055;-91
2023/06/28 00:14:39;;;;;;;7.50;4.50;;;;;;;;;;10206052;23;20014;-90
2023/06/28 00:18:43;;;;;;;7.82;4.93;;;;;;;;;;10206019;23;20099;-90
2023/06/28 00:22:46;;;;;;;11.25;4.93;;;;;;;;;;10231841;23;20345;-90
2023/06/28 00:26:49;;;;;;;8.43;4.97;;;;;;;;;;10231930;23;20017;-91
2023/06/28 00:30:53;;;;;;;9.63;5.47;;;;;;;;;;10232007;23;20341;-90
2023/06/28 00:34:57;;;;;;;8.80;5.57;;;;;;;;;;10231673;23;20017;-90
2023/06/28 00:39:00;;;;;;;10.02;5.35;;;;;;;;;;10232128;23;20024;-90
2023/06/28 00:43:03;;;;;;;7.68;5.03;;;;;;;;;;10231716;23;20395;-91
2023/06/28 00:47:08;;;;;;;10.10;5.45;;;;;;;;;;10231704;23;20021;-90
2023/06/28 00:51:11;;;;;;;15.30;6.18;;;;;;;;;;10231635;23;20021;-90
2023/06/28 00:55:15;;;;;;;9.50;6.43;;;;;;;;;;10231652;23;20017;-91
2023/06/28 00:59:19;;;;;;;13.50;6.88;;;;;;;;;;10231167;23;20040;-91
2023/06/28 01:03:24;;;;;;;13.90;6.97;;;;;;;;;;10205760;23;20063;-90
2023/06/28 01:07:35;;;;;;;12.02;6.47;;;;;;;;;;10231708;22;20028;-90
2023/06/28 01:11:39;;;;;;;15.02;6.55;;;;;;;;;;10231667;23;20058;-90
2023/06/28 01:15:42;;;;;;;17.38;7.50;;;;;;;;;;10231704;23;20017;-90
2023/06/28 01:19:46;;;;;;;21.08;8.27;;;;;;;;;;10231565;23;20445;-90
2023/06/28 01:23:51;;;;;;;17.05;7.55;;;;;;;;;;10231353;23;20449;-91
2023/06/28 01:27:55;;;;;;;19.85;8.48;;;;;;;;;;10231368;23;20024;-90
2023/06/28 01:31:58;;;;;;;16.58;7.90;;;;;;;;;;10231146;23;20061;-91
2023/06/28 01:36:00;;;;;;;17.15;8.13;;;;;;;;;;10231470;23;20049;-91
2023/06/28 01:40:06;;;;;;;15.95;7.88;;;;;;;;;;10231518;23;20396;-91
2023/06/28 01:44:09;;;;;;;15.85;8.30;;;;;;;;;;10247567;23;20450;-89
2023/06/28 01:48:13;;;;;;;16.50;8.20;;;;;;;;;;10231013;23;20472;-90
2023/06/28 01:52:16;;;;;;;21.67;9.10;;;;;;;;;;10231092;23;20017;-90
2023/06/28 01:56:21;;;;;;;21.63;8.27;;;;;;;;;;10231146;23;20021;-91
2023/06/28 02:00:24;;;;;;;18.60;8.45;;;;;;;;;;10230822;23;20017;-90
2023/06/28 02:04:26;;;;;;;16.85;7.97;;;;;;;;;;10205210;23;20028;-91
2023/06/28 02:08:29;;;;;;;17.38;8.02;;;;;;;;;;10231214;23;20097;-91
2023/06/28 02:12:33;;;;;;;19.33;8.77;;;;;;;;;;10231210;23;20070;-91
2023/06/28 02:16:37;;;;;;;20.23;8.32;;;;;;;;;;10231167;23;20056;-90
2023/06/28 02:20:43;;;;;;;16.55;7.82;;;;;;;;;;10231208;23;20373;-90
2023/06/28 02:24:46;;;;;;;13.70;7.55;;;;;;;;;;10247309;23;20017;-90
2023/06/28 02:28:50;;;;;;;17.42;8.00;;;;;;;;;;10230494;23;20044;-90
2023/06/28 02:32:53;;;;;;;15.13;8.05;;;;;;;;;;10231154;23;20117;-90
2023/06/28 02:36:56;;;;;;;14.45;7.43;;;;;;;;;;10231029;23;20021;-91
2023/06/28 02:40:59;;;;;;;14.55;7.85;;;;;;;;;;10230926;23;20507;-91
2023/06/28 02:45:03;;;;;;;15.32;8.07;;;;;;;;;;10230586;23;20021;-90
2023/06/28 02:49:08;;;;;;;16.02;7.97;;;;;;;;;;10230836;23;20138;-90
2023/06/28 02:53:10;;;;;;;13.75;7.38;;;;;;;;;;10230726;23;20059;-90
2023/06/28 02:57:17;;;;;;;17.70;6.75;;;;;;;;;;10247275;23;20476;-91
2023/06/28 03:01:21;;;;;;;12.43;6.95;;;;;;;;;;10230167;23;20021;-90
2023/06/28 03:05:24;;;;;;;13.90;7.43;;;;;;;;;;10230576;23;20024;-91
2023/06/28 03:09:27;;;;;;;15.07;7.80;;;;;;;;;;10230511;23;20028;-91
2023/06/28 03:13:30;;;;;;;14.82;8.15;;;;;;;;;;10230291;23;20017;-90
2023/06/28 03:17:35;;;;;;;17.92;8.60;;;;;;;;;;10230509;23;20055;-90
2023/06/28 03:21:38;;;;;;;14.07;7.97;;;;;;;;;;10230128;23;20430;-90
2023/06/28 03:25:42;;;;;;;13.07;7.30;;;;;;;;;;10230194;23;20384;-91
2023/06/28 03:29:45;;;;;;;12.63;7.32;;;;;;;;;;10230394;23;20035;-90
2023/06/28 03:33:49;;;;;;;12.75;7.53;;;;;;;;;;10230216;23;20032;-90
2023/06/28 03:37:53;;;;;;;13.60;6.68;;;;;;;;;;10230041;23;20104;-89
2023/06/28 03:41:56;;;;;;;11.77;5.35;;;;;;;;;;10231594;23;20074;-90
2023/06/28 03:46:02;;;;;;;11.85;4.82;;;;;;;;;;10257170;23;20024;-88
2023/06/28 03:50:09;;;;;;;10.68;4.63;;;;;;;;;;10230630;23;20021;-89
2023/06/28 03:54:14;;;;;;;6.32;4.00;;;;;;;;;;10257105;23;20028;-89
2023/06/28 03:58:17;;;;;;;6.55;3.97;;;;;;;;;;10257721;23;20017;-88
2023/06/28 04:02:24;;;;;;;6.65;3.88;;;;;;;;;;10258005;23;20047;-89
2023/06/28 04:06:30;;;;;;;6.75;4.03;;;;;;;;;;10255455;23;20021;-90
2023/06/28 04:10:46;;;;;;;9.25;3.60;;;;;;;;;;10274817;23;20074;-88
2023/06/28 04:14:52;;;;;;;5.68;3.10;;;;;;;;;;10274561;23;20027;-89
2023/06/28 04:18:57;;;;;;;5.38;2.92;;;;;;;;;;10269573;23;20043;-90
2023/06/28 04:23:02;;;;;;;6.93;2.80;;;;;;;;;;10257574;23;20013;-90
2023/06/28 04:27:06;;;;;;;7.90;3.00;;;;;;;;;;10256447;23;20029;-90
2023/06/28 04:31:10;;;;;;;5.32;2.80;;;;;;;;;;10254348;23;20021;-89
2023/06/28 04:35:14;;;;;;;4.53;2.88;;;;;;;;;;10257332;23;20047;-91
2023/06/28 04:39:18;;;;;;;4.72;2.95;;;;;;;;;;10252985;23;20445;-91
2023/06/28 04:43:22;;;;;;;4.80;3.00;;;;;;;;;;10229687;23;20340;-90
2023/06/28 04:47:27;;;;;;;7.85;3.13;;;;;;;;;;10253510;23;20046;-91
2023/06/28 04:51:31;;;;;;;4.80;2.88;;;;;;;;;;10248528;23;20028;-90
2023/06/28 04:55:35;;;;;;;4.97;2.63;;;;;;;;;;10231445;22;20341;-91
2023/06/28 04:59:39;;;;;;;7.28;3.15;;;;;;;;;;10231355;23;20017;-90
2023/06/28 05:03:41;;;;;;;7.30;3.25;;;;;;;;;;10204842;23;20071;-91
2023/06/28 05:07:44;;;;;;;5.57;2.72;;;;;;;;;;10231179;23;20024;-90
2023/06/28 05:11:48;;;;;;;7.13;2.20;;;;;;;;;;10204720;23;20022;-90
2023/06/28 05:15:51;;;;;;;3.55;2.08;;;;;;;;;;10230979;23;20041;-90
2023/06/28 05:19:54;;;;;;;2.95;1.58;;;;;;;;;;10231131;23;20017;-91
2023/06/28 05:23:57;;;;;;;4.38;1.73;;;;;;;;;;10230735;23;20017;-90
2023/06/28 05:28:01;;;;;;;5.95;1.88;;;;;;;;;;10230910;23;20037;-90
2023/06/28 05:32:05;;;;;;;2.13;1.45;;;;;;;;;;10230687;23;20024;-90
2023/06/28 05:36:08;;;;;;;1.67;1.40;;;;;;;;;;10230766;23;20017;-90
2023/06/28 05:40:12;;;;;;;3.90;1.40;;;;;;;;;;10230806;23;20021;-90
2023/06/28 05:44:20;;;;;;;5.25;1.67;;;;;;;;;;10230805;23;20418;-90
2023/06/28 05:48:23;;;;;;;3.83;1.30;;;;;;;;;;10230790;23;20066;-90
2023/06/28 05:52:26;;;;;;;3.13;1.38;;;;;;;;;;10230787;23;20017;-90
2023/06/28 05:56:29;;;;;;;2.95;1.38;;;;;;;;;;10230503;23;20021;-90
2023/06/28 06:00:34;;;;;;;4.38;1.50;;;;;;;;;;10230363;23;20025;-89
2023/06/28 06:04:37;;;;;;;2.10;1.20;;;;;;;;;;10229981;23;20025;-90
2023/06/28 06:08:40;;;;;;;4.13;1.45;;;;;;;;;;10230577;23;20028;-89
2023/06/28 06:12:43;;;;;;;5.30;1.80;;;;;;;;;;10230655;23;20025;-89
2023/06/28 06:16:48;;;;;;;2.40;1.30;;;;;;;;;;10230737;23;20017;-89
2023/06/28 06:20:51;;;;;;;3.35;1.50;;;;;;;;;;10230371;23;20017;-89
2023/06/28 06:24:54;;;;;;;4.53;1.60;;;;;;;;;;10230376;23;20017;-90
2023/06/28 06:28:58;;;;;;;2.95;1.50;;;;;;;;;;10230470;23;20098;-90
2023/06/28 06:33:02;;;;;;;3.50;1.42;;;;;;;;;;10230448;23;20025;-89
2023/06/28 06:37:11;;;;;;;5.57;1.50;;;;;;;;;;10230426;23;20024;-89
2023/06/28 06:41:15;;;;;;;2.05;1.35;;;;;;;;;;10246815;23;20074;-89
2023/06/28 06:45:19;;;;;;;2.97;1.40;;;;;;;;;;10230529;23;20051;-90
2023/06/28 06:49:24;;;;;;;2.97;1.40;;;;;;;;;;10230615;23;20441;-89
2023/06/28 06:53:26;;;;;;;3.47;1.23;;;;;;;;;;10230673;23;20052;-89
2023/06/28 06:57:29;;;;;;;3.50;1.30;;;;;;;;;;10230149;23;20017;-89
2023/06/28 07:01:34;;;;;;;3.60;1.50;;;;;;;;;;10229994;23;20028;-89
2023/06/28 07:05:40;;;;;;;5.43;1.50;;;;;;;;;;10229927;23;20070;-89
2023/06/28 07:09:43;;;;;;;4.82;1.40;;;;;;;;;;10229999;23;20078;-89
2023/06/28 07:13:46;;;;;;;4.57;1.60;;;;;;;;;;10229949;23;20025;-89
2023/06/28 07:17:49;;;;;;;4.47;1.80;;;;;;;;;;10230033;23;20089;-89
2023/06/28 07:21:53;;;;;;;10.98;2.53;;;;;;;;;;10229900;23;20086;-89
2023/06/28 07:25:56;;;;;;;3.30;1.40;;;;;;;;;;10229747;23;20024;-90
2023/06/28 07:29:59;;;;;;;3.22;1.40;;;;;;;;;;10229657;23;20086;-89
2023/06/28 07:34:04;;;;;;;2.60;1.23;;;;;;;;;;10229839;23;20453;-89
2023/06/28 07:38:08;;;;;;;3.05;1.60;;;;;;;;;;10229677;23;20017;-89
2023/06/28 07:42:12;;;;;;;2.65;1.33;;;;;;;;;;10229560;23;20028;-90
2023/06/28 07:46:15;;;;;;;5.28;1.70;;;;;;;;;;10229678;23;20354;-89
2023/06/28 07:50:20;;;;;;;2.85;1.38;;;;;;;;;;10229714;23;20017;-89
2023/06/28 07:54:25;;;;;;;4.75;1.42;;;;;;;;;;10229363;23;20028;-88
2023/06/28 07:58:28;;;;;;;6.50;1.65;;;;;;;;;;10246043;23;20017;-88
2023/06/28 08:02:31;;;;;;;8.75;2.17;;;;;;;;;;10229233;23;20383;-89
2023/06/28 08:06:34;;;;;;;6.03;1.75;;;;;;;;;;10229398;23;20032;-89
2023/06/28 08:10:38;;;;;;;5.30;1.70;;;;;;;;;;10203256;23;20040;-88
2023/06/28 08:14:41;;;;;;;4.47;1.70;;;;;;;;;;10229293;23;20021;-89
2023/06/28 08:18:44;;;;;;;7.28;1.75;;;;;;;;;;10229287;23;20021;-89
2023/06/28 08:22:47;;;;;;;5.15;1.60;;;;;;;;;;10229209;23;20053;-89
2023/06/28 08:26:52;;;;;;;4.82;1.63;;;;;;;;;;10229688;23;20028;-91
2023/06/28 08:30:55;;;;;;;4.57;1.50;;;;;;;;;;10231299;23;20040;-89
2023/06/28 08:34:58;;;;;;;7.78;1.77;;;;;;;;;;10231485;23;20610;-89
2023/06/28 08:39:01;;;;;;;4.80;1.50;;;;;;;;;;10231404;23;20100;-88
2023/06/28 08:43:07;;;;;;;3.83;1.58;;;;;;;;;;10231456;23;20341;-89
2023/06/28 08:47:12;;;;;;;6.68;1.90;;;;;;;;;;10247753;23;20094;-89
2023/06/28 08:51:16;;;;;;;4.80;1.65;;;;;;;;;;10247654;23;20052;-89
2023/06/28 08:55:20;;;;;;;4.07;1.42;;;;;;;;;;10231274;23;20337;-89
2023/06/28 08:59:25;;;;;;;6.32;1.70;;;;;;;;;;10231186;23;20127;-89
2023/06/28 09:03:30;;;;;;;3.65;1.40;;;;;;;;;;10230955;23;20322;-90
2023/06/28 09:07:35;;;;;;;6.03;1.60;;;;;;;;;;10231291;23;20074;-89
2023/06/28 09:11:38;;;;;;;4.35;1.60;;;;;;;;;;10204832;23;20021;-90
2023/06/28 09:15:42;;;;;;;4.05;1.58;;;;;;;;;;10231192;23;20018;-90
2023/06/28 09:19:45;;;;;;;4.75;1.70;;;;;;;;;;10205137;23;20028;-89
2023/06/28 09:23:50;;;;;;;4.85;1.70;;;;;;;;;;10231225;23;20021;-89
2023/06/28 09:27:54;;;;;;;3.55;1.80;;;;;;;;;;10247999;23;20021;-89
2023/06/28 09:32:00;;;;;;;7.40;1.83;;;;;;;;;;10231506;23;20066;-89
2023/06/28 09:36:03;;;;;;;6.07;1.95;;;;;;;;;;10234915;23;20078;-88
2023/06/28 09:40:09;;;;;;;3.45;1.90;;;;;;;;;;10224811;23;20031;-90
2023/06/28 09:44:15;;;;;;;2.42;1.60;;;;;;;;;;10242409;23;20021;-91
2023/06/28 09:48:23;;;;;;;3.47;1.90;;;;;;;;;;10242770;23;20026;-90
2023/06/28 09:52:27;;;;;;;4.88;2.08;;;;;;;;;;10242272;23;20471;-92
2023/06/28 10:01:09;;;;;;;6.55;1.83;;;;;;;;;;10486757;22;20015;-90
2023/06/28 10:05:15;;;;;;;4.07;1.77;;;;;;;;;;10462349;22;20019;-90
2023/06/28 10:10:10;;;;;;;10.65;2.08;;;;;;;;;;10458304;22;20019;-90
2023/06/28 10:14:24;;;;;;;4.30;1.90;;;;;;;;;;10453121;22;20019;-90
2023/06/28 10:18:32;;;;;;;8.60;2.22;;;;;;;;;;10459319;22;20014;-91
2023/06/28 10:22:39;;;;;;;4.18;2.10;;;;;;;;;;10458343;22;20026;-90
2023/06/28 10:26:43;;;;;;;6.15;2.15;;;;;;;;;;10497124;22;20418;-90
2023/06/28 10:30:47;;;;;;;5.05;2.10;;;;;;;;;;10486022;22;20032;-90
2023/06/28 10:34:51;;;;;;;3.90;1.70;;;;;;;;;;10486455;22;20022;-89
2023/06/28 10:38:56;;;;;;;6.25;1.90;;;;;;;;;;10484706;22;20469;-90
2023/06/28 10:42:59;;;;;;;3.50;1.80;;;;;;;;;;10486538;22;20019;-89
2023/06/28 10:47:16;;;;;;;4.47;2.00;;;;;;;;;;10485434;22;20021;-90
2023/06/28 10:51:22;;;;;;;4.43;2.13;;;;;;;;;;10458326;22;20144;-90
2023/06/28 10:55:34;;;;;;;4.25;1.95;;;;;;;;;;10458613;22;20018;-90
2023/06/28 10:59:47;;;;;;;3.30;1.98;;;;;;;;;;10485956;22;20025;-90
2023/06/28 11:03:53;;;;;;;4.30;1.85;;;;;;;;;;10502295;22;20029;-91
2023/06/28 11:07:55;;;;;;;5.32;3.42;;;;;;;;;;10502891;22;20074;-91
2023/06/28 11:12:01;;;;;;;3.85;2.30;;;;;;;;;;10485480;22;20025;-90
2023/06/28 11:16:09;;;;;;;3.70;2.00;;;;;;;;;;10502812;22;20022;-90
2023/06/28 11:20:13;;;;;;;3.72;1.88;;;;;;;;;;10485016;22;20079;-89
2023/06/28 11:24:27;;;;;;;4.22;1.98;;;;;;;;;;10479148;22;20030;-89
2023/06/28 11:28:34;;;;;;;5.00;2.08;;;;;;;;;;10501293;22;20101;-89
2023/06/28 11:32:38;;;;;;;5.30;2.10;;;;;;;;;;10499887;22;20023;-90
2023/06/28 11:36:44;;;;;;;5.45;2.03;;;;;;;;;;10484349;22;20034;-90
2023/06/28 11:40:49;;;;;;;6.95;2.17;;;;;;;;;;10484957;22;20019;-91
2023/06/28 11:44:54;;;;;;;3.50;1.95;;;;;;;;;;10484673;22;20088;-90
2023/06/28 11:49:00;;;;;;;2.85;1.88;;;;;;;;;;10484760;22;20046;-90
2023/06/28 11:53:03;;;;;;;6.18;2.38;;;;;;;;;;10500925;22;20026;-90
2023/06/28 11:57:07;;;;;;;4.70;2.10;;;;;;;;;;10483164;22;20106;-90
2023/06/28 12:01:23;;;;;;;5.10;1.95;;;;;;;;;;10484247;22;20023;-91
2023/06/28 12:05:26;;;;;;;5.82;2.00;;;;;;;;;;10458147;22;20026;-91
2023/06/28 12:09:32;;;;;;;3.42;2.05;;;;;;;;;;10486615;22;20064;-92
2023/06/28 12:13:36;;;;;;;4.93;2.05;;;;;;;;;;10487339;22;20067;-90
2023/06/28 12:17:41;;;;;;;4.20;2.00;;;;;;;;;;10487816;22;20019;-92
2023/06/28 12:21:44;;;;;;;6.25;2.08;;;;;;;;;;10488053;22;20018;-89
2023/06/28 12:25:47;;;;;;;5.60;2.00;;;;;;;;;;10488112;22;20022;-92
2023/06/28 12:29:50;;;;;;;4.50;2.03;;;;;;;;;;10488013;22;20071;-91
2023/06/28 12:33:55;;;;;;;4.22;1.88;;;;;;;;;;10488693;22;20075;-90
2023/06/28 12:37:59;;;;;;;5.07;1.80;;;;;;;;;;10489113;22;20418;-92
2023/06/28 12:42:08;;;;;;;3.78;1.60;;;;;;;;;;10507196;22;20471;-91
2023/06/28 12:46:12;;;;;;;3.35;1.77;;;;;;;;;;10507022;22;20019;-90
2023/06/28 12:50:16;;;;;;;8.27;2.42;;;;;;;;;;10486863;22;20019;-90
2023/06/28 12:54:19;;;;;;;6.47;2.20;;;;;;;;;;10486386;22;20011;-90
2023/06/28 12:58:24;;;;;;;4.55;1.90;;;;;;;;;;10484247;22;20019;-90
2023/06/28 13:02:27;;;;;;;6.43;2.30;;;;;;;;;;10504745;22;20022;-89
2023/06/28 13:06:32;;;;;;;8.68;2.65;;;;;;;;;;10486901;22;20729;-89
2023/06/28 13:10:36;;;;;;;7.80;2.08;;;;;;;;;;10459618;22;20023;-91
2023/06/28 13:14:41;;;;;;;6.28;2.55;;;;;;;;;;10471898;22;20034;-90
2023/06/28 13:18:45;;;;;;;13.77;3.13;;;;;;;;;;10487176;22;20022;-90
2023/06/28 13:22:53;;;;;;;6.53;1.92;;;;;;;;;;10456060;22;20015;-91
2023/06/28 13:26:57;;;;;;;3.03;1.85;;;;;;;;;;10506110;22;20041;-91
2023/06/28 13:30:59;;;;;;;6.80;1.80;;;;;;;;;;10462595;22;20060;-91
2023/06/28 13:35:06;;;;;;;11.13;2.55;;;;;;;;;;10491563;22;20343;-93
2023/06/28 13:39:17;;;;;;;7.47;2.70;;;;;;;;;;10463647;22;20022;-90
2023/06/28 13:43:20;;;;;;;15.75;3.22;;;;;;;;;;10509722;22;20430;-89
2023/06/28 13:47:23;;;;;;;13.10;3.13;;;;;;;;;;10492212;22;20022;-89
2023/06/28 13:51:26;;;;;;;8.57;2.75;;;;;;;;;;10492491;22;20019;-90
2023/06/28 13:55:31;;;;;;;10.88;2.22;;;;;;;;;;10491859;22;20015;-91
2023/06/28 13:59:34;;;;;;;7.07;2.28;;;;;;;;;;10488019;22;20466;-90
2023/06/28 14:03:37;;;;;;;3.72;2.00;;;;;;;;;;10490822;22;20029;-90
2023/06/28 14:07:40;;;;;;;8.63;2.88;;;;;;;;;;10491312;22;20023;-90
2023/06/28 14:11:44;;;;;;;3.92;2.17;;;;;;;;;;10464327;22;20019;-92
2023/06/28 14:15:47;;;;;;;3.88;2.38;;;;;;;;;;10490862;22;20023;-90
2023/06/28 14:19:50;;;;;;;5.32;2.50;;;;;;;;;;10491850;22;20068;-90
2023/06/28 14:23:54;;;;;;;8.48;2.67;;;;;;;;;;10491450;22;20053;-91
2023/06/28 14:28:02;;;;;;;8.77;2.70;;;;;;;;;;10464349;22;20068;-89
2023/06/28 14:32:06;;;;;;;6.72;2.45;;;;;;;;;;10464185;22;20014;-90
2023/06/28 14:36:09;;;;;;;7.55;2.38;;;;;;;;;;10485996;22;20019;-91
2023/06/28 14:40:13;;;;;;;6.40;2.30;;;;;;;;;;10486432;22;20019;-88
2023/06/28 14:44:17;;;;;;;6.45;2.40;;;;;;;;;;10485775;22;20040;-89
2023/06/28 14:48:20;;;;;;;5.55;2.38;;;;;;;;;;10457874;22;20026;-90
2023/06/28 14:52:35;;;;;;;6.95;2.50;;;;;;;;;;10485429;22;20026;-91
2023/06/28 14:56:49;;;;;;;5.05;2.20;;;;;;;;;;10486005;22;20033;-90
2023/06/28 15:01:00;;;;;;;7.95;2.90;;;;;;;;;;10503032;22;20022;-91
2023/06/28 15:05:06;;;;;;;3.80;1.90;;;;;;;;;;10502730;22;20164;-90
2023/06/28 15:09:09;;;;;;;4.50;1.98;;;;;;;;;;10485905;22;20023;-92
2023/06/28 15:13:12;;;;;;;4.00;1.65;;;;;;;;;;10457931;22;20015;-91
2023/06/28 15:17:19;;;;;;;3.90;1.48;;;;;;;;;;10484303;22;20015;-91
2023/06/28 15:21:22;;;;;;;1.58;1.17;;;;;;;;;;10502024;22;20067;-89
2023/06/28 15:25:25;;;;;;;4.10;1.60;;;;;;;;;;10485518;22;20026;-91
2023/06/28 15:29:28;;;;;;;6.78;1.73;;;;;;;;;;10485289;22;20019;-90
2023/06/28 15:33:32;;;;;;;2.33;1.40;;;;;;;;;;10484783;22;20094;-90
2023/06/28 15:37:35;;;;;;;2.45;1.40;;;;;;;;;;10485568;22;20023;-90
2023/06/28 15:41:38;;;;;;;2.67;1.40;;;;;;;;;;10485330;22;20027;-90
2023/06/28 15:45:42;;;;;;;2.05;1.50;;;;;;;;;;10485187;22;20022;-91
2023/06/28 15:49:48;;;;;;;4.90;1.42;;;;;;;;;;10485158;22;20026;-91
2023/06/28 15:53:51;;;;;;;1.45;1.35;;;;;;;;;;10501945;22;20026;-91
2023/06/28 15:57:54;;;;;;;2.83;1.45;;;;;;;;;;10485052;22;20010;-90
2023/06/28 16:01:57;;;;;;;2.10;1.33;;;;;;;;;;10485253;22;20018;-90
2023/06/28 16:06:04;;;;;;;1.45;1.35;;;;;;;;;;10482418;22;20080;-92
2023/06/28 16:10:08;;;;;;;2.00;1.40;;;;;;;;;;10457834;22;20465;-91
2023/06/28 16:14:11;;;;;;;5.30;1.70;;;;;;;;;;10484398;22;20071;-91
2023/06/28 16:18:14;;;;;;;1.90;1.70;;;;;;;;;;10484543;22;20029;-90
2023/06/28 16:22:19;;;;;;;2.17;1.48;;;;;;;;;;10485135;22;20439;-89
2023/06/28 16:26:22;;;;;;;3.88;1.80;;;;;;;;;;10484361;22;20103;-91
2023/06/28 16:30:26;;;;;;;2.35;2.00;;;;;;;;;;10484835;22;20033;-91
2023/06/28 16:34:29;;;;;;;4.78;2.33;;;;;;;;;;10483644;22;20023;-91
2023/06/28 16:38:39;;;;;;;7.47;5.32;;;;;;;;;;10489681;22;20018;-90
2023/06/28 16:42:45;;;;;;;13.57;9.15;;;;;;;;;;10506773;22;20021;-90
2023/06/28 16:46:48;;;;;;;10.75;8.68;;;;;;;;;;10489405;22;20098;-90
2023/06/28 16:51:00;;;;;;;24.40;10.13;;;;;;;;;;10489261;22;20389;-90
2023/06/28 16:55:06;;;;;;;10.23;5.00;;;;;;;;;;10464976;22;20015;-90
2023/06/28 16:59:13;;;;;;;9.00;4.65;;;;;;;;;;10492043;22;20030;-90
2023/06/28 17:03:19;;;;;;;11.85;7.72;;;;;;;;;;10509405;22;20018;-91
2023/06/28 17:07:25;;;;;;;10.52;7.38;;;;;;;;;;10465426;22;20019;-89
2023/06/28 17:11:33;;;;;;;17.73;12.23;;;;;;;;;;10465053;22;20022;-90
2023/06/28 17:15:36;;;;;;;8.60;5.70;;;;;;;;;;10463241;22;20019;-91
2023/06/28 17:19:40;;;;;;;6.13;4.53;;;;;;;;;;10490607;22;20076;-91
2023/06/28 17:23:43;;;;;;;8.50;4.40;;;;;;;;;;10492356;22;20022;-92
2023/06/28 17:27:48;;;;;;;5.80;3.55;;;;;;;;;;10492216;22;20023;-90
2023/06/28 17:31:52;;;;;;;4.88;3.50;;;;;;;;;;10464374;22;20096;-91
2023/06/28 17:35:57;;;;;;;5.07;3.45;;;;;;;;;;10492053;22;20023;-90
2023/06/28 17:40:07;;;;;;;4.20;3.17;;;;;;;;;;10491851;22;20384;-90
2023/06/28 17:44:33;;;;;;;4.18;3.28;;;;;;;;;;10490609;22;20018;-90
2023/06/28 17:48:39;;;;;;;4.45;3.33;;;;;;;;;;10491677;22;20053;-90
2023/06/28 17:52:45;;;;;;;5.15;3.88;;;;;;;;;;10490213;22;20461;-90
2023/06/28 17:56:54;;;;;;;6.80;4.32;;;;;;;;;;10480862;22;20023;-90
2023/06/28 18:01:03;;;;;;;8.32;5.45;;;;;;;;;;10464099;22;20022;-89
2023/06/28 18:05:10;;;;;;;8.55;4.88;;;;;;;;;;10464450;22;20431;-91
2023/06/28 18:09:14;;;;;;;8.80;5.55;;;;;;;;;;10509033;22;20652;-90
2023/06/28 18:13:19;;;;;;;10.73;5.88;;;;;;;;;;10464559;22;20010;-91
2023/06/28 18:17:26;;;;;;;13.35;7.20;;;;;;;;;;10490653;22;20022;-91
2023/06/28 18:21:30;;;;;;;15.15;7.25;;;;;;;;;;10508309;22;20014;-90
2023/06/28 18:25:34;;;;;;;12.88;7.80;;;;;;;;;;10490768;22;20019;-90
2023/06/28 18:29:43;;;;;;;11.75;7.78;;;;;;;;;;10491132;22;20454;-90
2023/06/28 18:33:47;;;;;;;14.13;7.78;;;;;;;;;;10463396;22;20631;-92
2023/06/28 18:37:51;;;;;;;10.02;6.03;;;;;;;;;;10490828;22;20041;-90
2023/06/28 18:41:56;;;;;;;10.50;7.05;;;;;;;;;;10490969;22;20061;-89
2023/06/28 18:46:01;;;;;;;11.23;7.75;;;;;;;;;;10491081;22;20102;-90
2023/06/28 18:50:08;;;;;;;11.20;7.57;;;;;;;;;;10508522;22;20040;-90
2023/06/28 18:54:14;;;;;;;13.63;7.60;;;;;;;;;;10463383;22;20066;-90
2023/06/28 18:58:29;;;;;;;11.73;8.07;;;;;;;;;;10508815;22;20385;-90
2023/06/28 19:02:33;;;;;;;13.05;7.25;;;;;;;;;;10463515;22;20484;-91
2023/06/28 19:06:38;;;;;;;12.57;8.05;;;;;;;;;;10491130;22;20465;-90
2023/06/28 19:10:41;;;;;;;10.85;7.70;;;;;;;;;;10490979;22;20397;-89
2023/06/28 19:14:56;;;;;;;15.65;8.50;;;;;;;;;;10492501;22;20025;-91
2023/06/28 19:19:08;;;;;;;14.18;8.75;;;;;;;;;;10464146;22;20164;-91
2023/06/28 19:23:18;;;;;;;15.95;9.02;;;;;;;;;;10465411;22;20344;-90
2023/06/28 19:27:23;;;;;;;16.38;9.05;;;;;;;;;;10463612;22;20014;-90
2023/06/28 19:31:27;;;;;;;18.83;9.13;;;;;;;;;;10463412;22;20086;-90
2023/06/28 19:35:30;;;;;;;15.93;9.07;;;;;;;;;;10490880;22;20382;-90
2023/06/28 19:39:35;;;;;;;15.48;8.93;;;;;;;;;;10490967;22;20026;-90
2023/06/28 19:43:38;;;;;;;16.83;9.20;;;;;;;;;;10508099;22;20046;-91
2023/06/28 19:47:42;;;;;;;12.20;7.43;;;;;;;;;;10490475;22;20021;-90
2023/06/28 19:51:45;;;;;;;12.48;8.15;;;;;;;;;;10490734;22;20462;-91
2023/06/28 19:55:50;;;;;;;12.00;7.50;;;;;;;;;;10490400;22;20565;-89
2023/06/28 19:59:54;;;;;;;12.63;7.60;;;;;;;;;;10490415;22;20022;-91
2023/06/28 20:03:57;;;;;;;12.77;8.85;;;;;;;;;;10490009;22;20071;-90
2023/06/28 20:08:00;;;;;;;15.10;9.20;;;;;;;;;;10490503;22;20023;-90
2023/06/28 20:12:05;;;;;;;18.65;11.48;;;;;;;;;;10490315;22;20439;-90
2023/06/28 20:16:10;;;;;;;19.33;12.45;;;;;;;;;;10490295;22;20015;-91
2023/06/28 20:20:14;;;;;;;27.38;13.98;;;;;;;;;;10507646;22;20021;-91
2023/06/28 20:24:18;;;;;;;28.83;15.40;;;;;;;;;;10492314;22;20094;-91
2023/06/28 20:28:22;;;;;;;27.38;15.98;;;;;;;;;;10493240;22;20083;-90
2023/06/28 20:32:25;;;;;;;29.00;16.30;;;;;;;;;;10465486;22;20049;-91
2023/06/28 20:36:29;;;;;;;25.95;16.02;;;;;;;;;;10493151;22;20015;-90
2023/06/28 20:40:35;;;;;;;24.27;15.05;;;;;;;;;;10466008;22;20014;-91
2023/06/28 20:44:41;;;;;;;25.15;15.90;;;;;;;;;;10493109;22;20367;-91
2023/06/28 20:48:45;;;;;;;31.52;16.52;;;;;;;;;;10510500;22;20014;-91
2023/06/28 20:52:51;;;;;;;27.92;17.23;;;;;;;;;;10492851;22;20026;-90
2023/06/28 20:56:55;;;;;;;30.33;18.27;;;;;;;;;;10492960;22;20107;-90
2023/06/28 21:01:04;;;;;;;38.50;20.98;;;;;;;;;;10465915;22;20019;-91
2023/06/28 21:05:07;;;;;;;35.60;19.85;;;;;;;;;;10510277;22;20022;-90
2023/06/28 21:09:10;;;;;;;45.67;20.95;;;;;;;;;;10492802;22;20019;-90
2023/06/28 21:13:13;;;;;;;35.47;19.05;;;;;;;;;;10492756;22;20022;-90
2023/06/28 21:17:20;;;;;;;37.13;21.38;;;;;;;;;;10492314;22;20022;-91
2023/06/28 21:21:23;;;;;;;45.50;20.55;;;;;;;;;;10510232;22;20015;-90
2023/06/28 21:25:26;;;;;;;34.92;20.23;;;;;;;;;;10492654;22;20023;-90
2023/06/28 21:29:29;;;;;;;39.33;18.58;;;;;;;;;;10492511;22;20095;-91
2023/06/28 21:33:34;;;;;;;38.72;20.35;;;;;;;;;;10492359;22;20033;-90
2023/06/28 21:37:37;;;;;;;38.97;21.60;;;;;;;;;;10492138;22;20068;-89
2023/06/28 21:41:43;;;;;;;29.50;18.55;;;;;;;;;;10492265;22;20023;-90
2023/06/28 21:45:47;;;;;;;37.42;19.92;;;;;;;;;;10509610;22;20022;-90
2023/06/28 21:49:52;;;;;;;32.03;18.80;;;;;;;;;;10491703;22;20439;-90
2023/06/28 21:53:55;;;;;;;30.67;19.33;;;;;;;;;;10492064;22;20018;-90
2023/06/28 21:57:58;;;;;;;29.25;18.10;;;;;;;;;;10492170;22;20021;-91
2023/06/28 22:02:01;;;;;;;33.85;19.83;;;;;;;;;;10492171;22;20026;-91
2023/06/28 22:06:06;;;;;;;35.00;19.90;;;;;;;;;;10491866;22;20453;-90
2023/06/28 22:10:09;;;;;;;34.13;19.83;;;;;;;;;;10491931;22;20014;-90
2023/06/28 22:14:14;;;;;;;34.35;19.23;;;;;;;;;;10491410;22;20084;-91
2023/06/28 22:18:19;;;;;;;36.85;20.17;;;;;;;;;;10491929;22;20023;-91
2023/06/28 22:22:24;;;;;;;38.00;20.10;;;;;;;;;;10508794;22;20068;-90
2023/06/28 22:26:28;;;;;;;35.83;21.00;;;;;;;;;;10491340;22;20046;-90
2023/06/28 22:30:31;;;;;;;32.55;19.52;;;;;;;;;;10491575;22;20019;-90
2023/06/28 22:34:33;;;;;;;40.38;20.52;;;;;;;;;;10463918;22;20351;-91
2023/06/28 22:38:37;;;;;;;37.75;20.55;;;;;;;;;;10491254;22;20545;-89
2023/06/28 22:42:41;;;;;;;33.90;20.88;;;;;;;;;;10491130;22;20443;-90
2023/06/28 22:46:44;;;;;;;34.92;19.67;;;;;;;;;;10490763;22;20021;-90
2023/06/28 22:50:48;;;;;;;33.30;19.35;;;;;;;;;;10491535;22;20087;-90
2023/06/28 22:54:53;;;;;;;39.80;21.23;;;;;;;;;;10491207;22;20397;-91
2023/06/28 22:58:55;;;;;;;34.30;21.35;;;;;;;;;;10463485;22;20354;-90
2023/06/28 23:02:58;;;;;;;33.67;20.20;;;;;;;;;;10491173;22;20098;-90
2023/06/28 23:07:03;;;;;;;32.67;21.75;;;;;;;;;;10491053;22;20389;-90
2023/06/28 23:11:07;;;;;;;30.33;20.55;;;;;;;;;;10462981;22;20054;-90
2023/06/28 23:15:11;;;;;;;29.48;20.10;;;;;;;;;;10490754;22;20030;-90
2023/06/28 23:19:14;;;;;;;33.35;21.35;;;;;;;;;;10490833;22;20069;-90
2023/06/28 23:23:18;;;;;;;35.50;21.25;;;;;;;;;;10491014;22;20022;-90
2023/06/28 23:27:22;;;;;;;33.25;21.30;;;;;;;;;;10490791;22;20021;-89
2023/06/28 23:31:25;;;;;;;35.35;21.08;;;;;;;;;;10491053;22;20015;-90
2023/06/28 23:35:32;;;;;;;31.75;20.33;;;;;;;;;;10491191;22;20392;-90
2023/06/28 23:39:38;;;;;;;34.45;21.48;;;;;;;;;;10507848;22;20015;-90
2023/06/28 23:43:43;;;;;;;34.63;21.42;;;;;;;;;;10463036;22;20018;-91
2023/06/28 23:47:46;;;;;;;35.05;21.08;;;;;;;;;;10490571;22;20053;-91
2023/06/28 23:51:48;;;;;;;37.03;23.52;;;;;;;;;;10490683;22;20018;-91
2023/06/28 23:55:51;;;;;;;47.25;25.25;;;;;;;;;;10490718;22;20014;-90